Prevelis — SYDL — position and weather

sailwx.info

Track history (hours):
 
Tides and Currents Weather Stations Pressure Air Temp Water Temp Dewpoint Dewpoint Depression Visibility Wind Speed Wind Dir Waves Ship Positions

Prevelis

Last reported at 2018-Jun-22 09:00 UTC. Time now 2018-Jun-22 09:20 UTC.
Position N 37°57' E 023°38'.

Length 143 m; draft 5.4 m.

Type: Passenger vessel. MMSI: 239297000.

Date/timePositionNaut miles runAvg speedWind from/ knotsBaromVisibWave heightAir tempDewpointWater temp
2018-Jun-22 09:00N 37°57' E 023°38'0 0.0
2018-Jun-22 08:30N 37°57' E 023°38'0 0.0
2018-Jun-22 08:00N 37°57' E 023°38'0 0.0
2018-Jun-22 07:30N 37°57' E 023°38'0 0.0
2018-Jun-22 07:00N 37°57' E 023°38'0 0.0
2018-Jun-22 06:30N 37°57' E 023°38'0 0.0
2018-Jun-22 06:00N 37°57' E 023°38'0 0.0
2018-Jun-22 05:30N 37°57' E 023°38'0 0.8
2018-Jun-22 05:01N 37°57' E 023°38'714.1
2018-Jun-22 04:30N 37°50' E 023°40'918.6
2018-Jun-22 04:00N 37°41' E 023°46'  
2018-Jun-18 16:24N 37°38' E 023°46'717.9
2018-Jun-18 16:00N 37°44' E 023°41'917.7
2018-Jun-18 15:30N 37°52' E 023°37'5 8.4
2018-Jun-18 14:55N 37°57' E 023°38'0 0.0
2018-Jun-18 14:29N 37°57' E 023°38'0 0.0
2018-Jun-18 13:59N 37°57' E 023°38'0 0.0
2018-Jun-18 13:29N 37°57' E 023°38'0 0.0
2018-Jun-18 13:00N 37°57' E 023°38'0 0.0
2018-Jun-18 12:30N 37°57' E 023°38'0 0.0
2018-Jun-18 12:00N 37°57' E 023°38'0 0.0
2018-Jun-18 11:25N 37°57' E 023°38'0 0.0
2018-Jun-18 10:58N 37°57' E 023°38'0 0.0
2018-Jun-18 10:28N 37°57' E 023°38'0 0.0
2018-Jun-18 09:59N 37°57' E 023°38'0 0.0
2018-Jun-18 09:29N 37°57' E 023°38'0 0.0
2018-Jun-18 09:00N 37°57' E 023°38'4 7.1
2018-Jun-18 08:30N 37°53' E 023°38'918.2
2018-Jun-18 08:00N 37°45' E 023°43'1118.4
2018-Jun-18 07:26N 37°35' E 023°48'  
2018-Jun-15 16:38N 37°39' E 023°43'217.4
2018-Jun-15 16:30N 37°41' E 023°42'817.2
2018-Jun-15 16:01N 37°49' E 023°37'815.2
2018-Jun-15 15:30N 37°56' E 023°38'1 1.7
2018-Jun-15 15:00N 37°57' E 023°38'0 0.0
2018-Jun-15 14:30N 37°57' E 023°38'0 0.0
2018-Jun-15 14:00N 37°57' E 023°38'0 0.0
2018-Jun-15 13:30N 37°57' E 023°38'0 0.0
2018-Jun-15 13:00N 37°57' E 023°38'0 0.0
2018-Jun-15 12:30N 37°57' E 023°38'0 0.0
2018-Jun-15 12:00N 37°57' E 023°38'0 0.0
2018-Jun-15 11:30N 37°57' E 023°38'0 0.0
2018-Jun-15 11:00N 37°57' E 023°38'0 0.0
2018-Jun-15 10:30N 37°57' E 023°38'0 0.0
2018-Jun-15 10:00N 37°57' E 023°38'0 0.0
2018-Jun-15 09:30N 37°57' E 023°38'0 0.0
2018-Jun-15 09:00N 37°57' E 023°38'0 0.0
2018-Jun-15 08:30N 37°57' E 023°38'0 0.0
2018-Jun-15 08:00N 37°57' E 023°38'0 0.0
2018-Jun-15 07:30N 37°57' E 023°38'0 0.0
2018-Jun-15 07:00N 37°57' E 023°38'0 0.0
2018-Jun-15 06:30N 37°57' E 023°38'0 0.0
2018-Jun-15 06:00N 37°57' E 023°38'0 0.1
2018-Jun-15 05:30N 37°57' E 023°38'4 8.3
2018-Jun-15 05:01N 37°53' E 023°38'918.2
2018-Jun-15 04:31N 37°45' E 023°43'1018.2
2018-Jun-15 03:59N 37°37' E 023°50'  
Track history (hours):
 
Tides and Currents Weather Stations Pressure Air Temp Water Temp Dewpoint Dewpoint Depression Visibility Wind Speed Wind Dir Waves Ship Positions

Prevelis

Last reported at 2018-Jun-22 09:00 UTC. Time now 2018-Jun-22 09:20 UTC.
Position N 37°57' E 023°38'.

Length 143 m; draft 5.4 m.

Type: Passenger vessel. MMSI: 239297000.

Date/timePositionNaut miles runAvg speedWind from/ knotsBaromVisibWave heightAir tempDewpointWater temp
2018-Jun-22 09:00N 37°57' E 023°38'0 0.0
2018-Jun-22 08:30N 37°57' E 023°38'0 0.0
2018-Jun-22 08:00N 37°57' E 023°38'0 0.0
2018-Jun-22 07:30N 37°57' E 023°38'0 0.0
2018-Jun-22 07:00N 37°57' E 023°38'0 0.0
2018-Jun-22 06:30N 37°57' E 023°38'0 0.0
2018-Jun-22 06:00N 37°57' E 023°38'0 0.0
2018-Jun-22 05:30N 37°57' E 023°38'0 0.8
2018-Jun-22 05:01N 37°57' E 023°38'714.1
2018-Jun-22 04:30N 37°50' E 023°40'918.6
2018-Jun-22 04:00N 37°41' E 023°46'  
2018-Jun-18 16:24N 37°38' E 023°46'717.9
2018-Jun-18 16:00N 37°44' E 023°41'917.7
2018-Jun-18 15:30N 37°52' E 023°37'5 8.4
2018-Jun-18 14:55N 37°57' E 023°38'0 0.0
2018-Jun-18 14:29N 37°57' E 023°38'0 0.0
2018-Jun-18 13:59N 37°57' E 023°38'0 0.0
2018-Jun-18 13:29N 37°57' E 023°38'0 0.0
2018-Jun-18 13:00N 37°57' E 023°38'0 0.0
2018-Jun-18 12:30N 37°57' E 023°38'0 0.0
2018-Jun-18 12:00N 37°57' E 023°38'0 0.0
2018-Jun-18 11:25N 37°57' E 023°38'0 0.0
2018-Jun-18 10:58N 37°57' E 023°38'0 0.0
2018-Jun-18 10:28N 37°57' E 023°38'0 0.0
2018-Jun-18 09:59N 37°57' E 023°38'0 0.0
2018-Jun-18 09:29N 37°57' E 023°38'0 0.0
2018-Jun-18 09:00N 37°57' E 023°38'4 7.1
2018-Jun-18 08:30N 37°53' E 023°38'918.2
2018-Jun-18 08:00N 37°45' E 023°43'1118.4
2018-Jun-18 07:26N 37°35' E 023°48'  
2018-Jun-15 16:38N 37°39' E 023°43'217.4
2018-Jun-15 16:30N 37°41' E 023°42'817.2
2018-Jun-15 16:01N 37°49' E 023°37'815.2
2018-Jun-15 15:30N 37°56' E 023°38'1 1.7
2018-Jun-15 15:00N 37°57' E 023°38'0 0.0
2018-Jun-15 14:30N 37°57' E 023°38'0 0.0
2018-Jun-15 14:00N 37°57' E 023°38'0 0.0
2018-Jun-15 13:30N 37°57' E 023°38'0 0.0
2018-Jun-15 13:00N 37°57' E 023°38'0 0.0
2018-Jun-15 12:30N 37°57' E 023°38'0 0.0
2018-Jun-15 12:00N 37°57' E 023°38'0 0.0
2018-Jun-15 11:30N 37°57' E 023°38'0 0.0
2018-Jun-15 11:00N 37°57' E 023°38'0 0.0
2018-Jun-15 10:30N 37°57' E 023°38'0 0.0
2018-Jun-15 10:00N 37°57' E 023°38'0 0.0
2018-Jun-15 09:30N 37°57' E 023°38'0 0.0
2018-Jun-15 09:00N 37°57' E 023°38'0 0.0
2018-Jun-15 08:30N 37°57' E 023°38'0 0.0
2018-Jun-15 08:00N 37°57' E 023°38'0 0.0
2018-Jun-15 07:30N 37°57' E 023°38'0 0.0
2018-Jun-15 07:00N 37°57' E 023°38'0 0.0
2018-Jun-15 06:30N 37°57' E 023°38'0 0.0
2018-Jun-15 06:00N 37°57' E 023°38'0 0.1
2018-Jun-15 05:30N 37°57' E 023°38'4 8.3
2018-Jun-15 05:01N 37°53' E 023°38'918.2
2018-Jun-15 04:31N 37°45' E 023°43'1018.2
2018-Jun-15 03:59N 37°37' E 023°50'  

Dump ship's entire track history